createdAt,value
2022-11-16T00:00:23.913Z,94.55
2022-11-16T00:02:50.324Z,94.30
2022-11-16T00:05:16.763Z,94.32
2022-11-16T00:07:43.078Z,94.17
2022-11-16T00:10:09.744Z,95.06
2022-11-16T00:12:37.608Z,95.43
2022-11-16T00:15:04.472Z,95.53
2022-11-16T00:17:30.808Z,95.26
2022-11-16T00:19:57.133Z,95.33
2022-11-16T00:22:23.487Z,95.41
2022-11-16T00:24:49.849Z,95.74
2022-11-16T00:27:16.196Z,95.81
2022-11-16T00:29:43.900Z,95.77
2022-11-16T00:32:10.239Z,95.98
2022-11-16T00:34:36.576Z,95.68
2022-11-16T00:37:02.957Z,95.67
2022-11-16T00:39:29.333Z,95.95
2022-11-16T00:41:55.687Z,96.08
2022-11-16T00:44:22.023Z,96.10
2022-11-16T00:46:49.725Z,96.09
2022-11-16T00:49:16.129Z,96.45
2022-11-16T00:51:42.530Z,96.87
2022-11-16T00:54:08.991Z,97.00
2022-11-16T00:56:35.539Z,96.68
2022-11-16T00:59:01.875Z,96.14
2022-11-16T01:01:28.303Z,95.92
2022-11-16T01:03:56.061Z,95.55
2022-11-16T01:06:22.409Z,94.87
2022-11-16T01:08:49.256Z,95.77
2022-11-16T01:11:16.261Z,96.00
2022-11-16T01:13:42.604Z,95.78
2022-11-16T01:16:08.997Z,95.98
2022-11-16T01:18:35.575Z,96.11
2022-11-16T01:21:05.272Z,96.22
2022-11-16T01:23:31.625Z,96.57
2022-11-16T01:25:58.100Z,96.68
2022-11-16T01:28:24.459Z,96.71
2022-11-16T01:30:50.781Z,96.86
2022-11-16T01:33:17.127Z,96.78
2022-11-16T01:35:43.541Z,96.95
2022-11-16T01:38:11.277Z,96.80
2022-11-16T01:40:37.682Z,96.47
2022-11-16T01:43:04.120Z,95.34
2022-11-16T01:45:35.087Z,95.10
2022-11-16T01:48:01.573Z,95.40
2022-11-16T01:50:28.066Z,95.53
2022-11-16T01:52:57.144Z,94.99
2022-11-16T01:55:26.535Z,95.21
2022-11-16T01:57:52.924Z,95.33
2022-11-16T02:00:19.301Z,95.75
2022-11-16T02:02:45.689Z,95.67
2022-11-16T02:05:13.249Z,95.90
2022-11-16T02:08:01.428Z,96.38
2022-11-16T02:10:37.367Z,96.31
2022-11-16T02:13:14.359Z,96.46
2022-11-16T02:15:45.008Z,96.36
2022-11-16T02:18:20.249Z,96.23
2022-11-16T02:21:08.927Z,96.55
2022-11-16T02:23:45.692Z,96.68
2022-11-16T02:26:22.128Z,96.62
2022-11-16T02:28:52.230Z,96.57
2022-11-16T02:31:23.513Z,96.38
2022-11-16T02:33:50.778Z,96.15
2022-11-16T02:36:20.568Z,95.15
2022-11-16T02:38:49.804Z,95.24
2022-11-16T02:41:19.753Z,94.93
2022-11-16T02:43:49.020Z,95.60
2022-11-16T02:46:16.892Z,95.91
2022-11-16T02:48:47.627Z,96.17
2022-11-16T02:51:14.491Z,96.16
2022-11-16T02:53:41.975Z,96.11
2022-11-16T02:56:11.632Z,96.04
2022-11-16T02:58:38.016Z,95.69
2022-11-16T03:01:06.772Z,95.92
2022-11-16T03:03:38.055Z,96.07
2022-11-16T03:06:07.390Z,95.11
2022-11-16T03:08:36.346Z,94.29
2022-11-16T03:11:05.431Z,94.88
2022-11-16T03:13:33.325Z,95.45
2022-11-16T03:16:00.885Z,95.98
2022-11-16T03:18:28.200Z,96.29
2022-11-16T03:20:59.517Z,96.06
2022-11-16T03:23:27.513Z,96.35
2022-11-16T03:25:55.809Z,96.57
2022-11-16T03:28:24.534Z,96.50
2022-11-16T03:30:52.561Z,96.73
2022-11-16T03:33:21.797Z,96.72
2022-11-16T03:35:52.010Z,96.53
2022-11-16T03:38:19.320Z,96.70
2022-11-16T03:40:47.601Z,96.90
2022-11-16T03:43:15.003Z,97.14
2022-11-16T03:45:41.542Z,97.21
2022-11-16T03:48:08.035Z,96.90
2022-11-16T03:50:34.377Z,97.13
2022-11-16T03:53:00.724Z,96.75
2022-11-16T03:55:27.091Z,96.35
2022-11-16T03:57:54.815Z,95.99
2022-11-16T04:00:21.303Z,95.26
2022-11-16T04:02:47.648Z,95.08
2022-11-16T04:05:14.128Z,95.56
2022-11-16T04:07:40.466Z,95.80
2022-11-16T04:10:07.064Z,96.04
2022-11-16T04:12:33.484Z,96.23
2022-11-16T04:15:01.242Z,96.55
2022-11-16T04:17:27.741Z,96.69
2022-11-16T04:19:57.917Z,96.78
2022-11-16T04:22:26.304Z,96.90
2022-11-16T04:24:55.499Z,96.94
2022-11-16T04:27:25.320Z,96.74
2022-11-16T04:29:51.898Z,96.78
2022-11-16T04:32:19.596Z,96.69
2022-11-16T04:34:46.145Z,96.11
2022-11-16T04:37:14.494Z,96.16
2022-11-16T04:39:40.861Z,95.75
2022-11-16T04:42:13.886Z,95.73
2022-11-16T04:44:40.245Z,95.74
2022-11-16T04:47:06.581Z,95.54
2022-11-16T04:49:34.586Z,95.65
2022-11-16T04:52:00.912Z,95.77
2022-11-16T04:54:27.271Z,95.65
2022-11-16T04:56:53.613Z,94.99
2022-11-16T04:59:20.093Z,95.10
2022-11-16T05:01:46.517Z,95.59
2022-11-16T05:04:12.877Z,95.97
2022-11-16T05:06:40.602Z,95.94
2022-11-16T05:09:06.943Z,96.10
2022-11-16T05:11:33.330Z,95.85
2022-11-16T05:13:59.670Z,96.11
2022-11-16T05:16:26.015Z,95.86
2022-11-16T05:18:52.352Z,95.95
2022-11-16T05:21:18.701Z,96.01
2022-11-16T05:23:46.414Z,95.75
2022-11-16T05:26:12.770Z,95.73
2022-11-16T05:28:39.258Z,95.54
2022-11-16T05:31:05.796Z,95.24
2022-11-16T05:33:32.182Z,95.00
2022-11-16T05:35:58.548Z,93.93
2022-11-16T05:38:24.886Z,93.39
2022-11-16T05:40:52.601Z,93.38
2022-11-16T05:43:18.944Z,93.58
2022-11-16T05:45:45.321Z,94.15
2022-11-16T05:48:11.657Z,93.25
2022-11-16T05:50:42.580Z,94.15
2022-11-16T05:53:09.533Z,93.90
2022-11-16T05:55:35.867Z,94.27
2022-11-16T05:58:03.602Z,93.90
2022-11-16T06:00:29.996Z,94.31
2022-11-16T06:02:56.394Z,94.76
2022-11-16T06:05:22.828Z,94.65
2022-11-16T06:07:49.189Z,93.93
2022-11-16T06:10:15.568Z,93.96
2022-11-16T06:12:41.925Z,94.28
2022-11-16T06:15:09.884Z,94.62
2022-11-16T06:17:36.234Z,94.68
2022-11-16T06:20:02.688Z,94.81
2022-11-16T06:22:29.041Z,95.15
2022-11-16T06:24:55.366Z,95.41
2022-11-16T06:27:21.712Z,95.35
2022-11-16T06:29:48.046Z,95.73
2022-11-16T06:32:15.769Z,95.78
2022-11-16T06:34:42.202Z,95.99
2022-11-16T06:37:08.562Z,95.78
2022-11-16T06:39:34.889Z,95.89
2022-11-16T06:42:01.268Z,95.73
2022-11-16T06:44:27.623Z,95.70
2022-11-16T06:46:53.961Z,95.45
2022-11-16T06:49:21.648Z,95.28
2022-11-16T06:51:48.005Z,95.00
2022-11-16T06:54:14.377Z,95.20
2022-11-16T06:56:40.752Z,95.48
2022-11-16T06:59:07.095Z,95.67
2022-11-16T07:01:33.466Z,95.55
2022-11-16T07:03:59.999Z,95.80
2022-11-16T07:06:27.767Z,95.41
2022-11-16T07:08:54.100Z,95.59
2022-11-16T07:11:20.499Z,95.28
2022-11-16T07:13:46.900Z,95.00
2022-11-16T07:16:13.255Z,95.18
2022-11-16T07:18:41.259Z,94.61
2022-11-16T07:21:08.027Z,95.21
2022-11-16T07:23:36.209Z,94.75
2022-11-16T07:26:03.475Z,94.38
2022-11-16T07:28:29.907Z,94.52
2022-11-16T07:30:56.252Z,94.31
2022-11-16T07:33:22.717Z,94.15
2022-11-16T07:35:49.091Z,94.38
2022-11-16T07:38:18.023Z,94.81
2022-11-16T07:40:46.023Z,95.13
2022-11-16T07:43:12.519Z,95.30
2022-11-16T07:45:38.870Z,95.31
2022-11-16T07:48:05.611Z,94.99
2022-11-16T07:50:31.958Z,94.92
2022-11-16T07:52:58.317Z,94.32
2022-11-16T07:55:24.653Z,94.24
2022-11-16T07:57:53.626Z,94.74
2022-11-16T08:00:20.092Z,94.55
2022-11-16T08:02:46.517Z,94.59
2022-11-16T08:05:12.978Z,94.70
2022-11-16T08:07:39.354Z,94.80
2022-11-16T08:10:06.128Z,95.16
2022-11-16T08:12:32.745Z,95.54
2022-11-16T08:15:00.471Z,95.67
2022-11-16T08:17:26.907Z,94.91
2022-11-16T08:19:53.248Z,94.07
2022-11-16T08:22:19.598Z,94.44
2022-11-16T08:24:45.938Z,94.00
2022-11-16T08:27:12.278Z,93.72
2022-11-16T08:29:38.649Z,93.78
2022-11-16T08:32:06.370Z,93.46
2022-11-16T08:34:33.777Z,93.11
2022-11-16T08:37:00.119Z,93.49
2022-11-16T08:39:26.484Z,93.86
2022-11-16T08:41:52.851Z,93.84
2022-11-16T08:44:19.245Z,93.89
2022-11-16T08:46:45.583Z,93.61
2022-11-16T08:49:13.379Z,93.44
2022-11-16T08:51:39.731Z,93.71
2022-11-16T08:54:06.117Z,93.80
2022-11-16T08:56:32.632Z,93.49
2022-11-16T08:58:59.521Z,93.51
2022-11-16T09:01:27.126Z,93.43
2022-11-16T09:03:53.555Z,93.61
2022-11-16T09:06:21.631Z,94.12
2022-11-16T09:08:48.019Z,94.00
2022-11-16T09:11:15.165Z,94.45
2022-11-16T09:13:41.545Z,94.95
2022-11-16T09:16:08.284Z,95.12
2022-11-16T09:18:35.452Z,95.08
2022-11-16T09:21:01.972Z,94.97
2022-11-16T09:23:29.999Z,94.49
2022-11-16T09:26:00.067Z,94.54
2022-11-16T09:28:26.450Z,93.76
2022-11-16T09:30:52.788Z,93.28
2022-11-16T09:33:19.272Z,93.84
2022-11-16T09:35:45.917Z,94.05
2022-11-16T09:38:16.192Z,93.60
2022-11-16T09:40:49.768Z,93.61
2022-11-16T09:43:21.760Z,93.04
2022-11-16T09:45:52.627Z,92.89
2022-11-16T09:48:20.953Z,92.81
2022-11-16T09:50:50.661Z,93.63
2022-11-16T09:53:20.511Z,93.33
2022-11-16T09:55:48.605Z,92.63
2022-11-16T09:58:18.334Z,92.76
2022-11-16T10:00:47.320Z,92.16
2022-11-16T10:03:14.529Z,92.70
2022-11-16T10:05:43.683Z,92.99
2022-11-16T10:08:12.635Z,92.11
2022-11-16T10:10:39.795Z,92.80
2022-11-16T10:13:14.613Z,92.08
2022-11-16T10:15:57.581Z,91.56
2022-11-16T10:18:38.256Z,92.17
2022-11-16T10:21:12.181Z,91.67
2022-11-16T10:23:46.122Z,91.27
2022-11-16T10:26:18.101Z,92.51
2022-11-16T10:28:52.847Z,91.94
2022-11-16T10:31:24.496Z,91.28
2022-11-16T10:33:54.060Z,91.23
2022-11-16T10:36:22.746Z,90.58
2022-11-16T10:38:49.244Z,91.31
2022-11-16T10:41:18.099Z,90.71
2022-11-16T10:43:44.962Z,90.48
2022-11-16T10:46:14.359Z,90.75
2022-11-16T10:48:43.398Z,90.31
2022-11-16T10:51:11.173Z,90.61
2022-11-16T10:53:38.477Z,90.34
2022-11-16T10:56:15.394Z,91.05
2022-11-16T10:58:52.481Z,90.55
2022-11-16T11:01:32.490Z,90.65
2022-11-16T11:04:12.147Z,90.24
2022-11-16T11:06:40.306Z,90.26
2022-11-16T11:09:14.257Z,90.71
2022-11-16T11:11:40.659Z,91.16
2022-11-16T11:14:09.700Z,91.59
2022-11-16T11:16:36.091Z,91.43
2022-11-16T11:19:17.160Z,92.11
2022-11-16T11:21:45.267Z,91.73
2022-11-16T11:24:42.896Z,91.42
2022-11-16T11:27:01.381Z,91.33
2022-11-16T11:29:29.878Z,91.83
2022-11-16T11:31:58.069Z,91.42
2022-11-16T11:34:25.890Z,91.22
2022-11-16T11:36:55.177Z,91.54
2022-11-16T11:39:34.830Z,91.46
2022-11-16T11:42:03.047Z,91.23
2022-11-16T11:44:32.741Z,91.22
2022-11-16T11:47:50.349Z,91.27
2022-11-16T11:49:59.025Z,90.90
2022-11-16T11:52:30.541Z,90.88
2022-11-16T11:54:56.965Z,91.22
2022-11-16T11:57:23.857Z,91.68
2022-11-16T11:59:51.245Z,91.84
2022-11-16T12:02:26.473Z,91.12
2022-11-16T12:05:16.763Z,91.71
2022-11-16T12:07:49.334Z,91.66
2022-11-16T12:10:19.728Z,91.75
2022-11-16T12:12:53.883Z,92.75
2022-11-16T12:15:31.629Z,93.29
2022-11-16T12:18:03.722Z,92.54
2022-11-16T12:20:35.511Z,92.49
2022-11-16T12:23:22.122Z,91.85
2022-11-16T12:25:52.904Z,92.12
2022-11-16T12:28:26.012Z,92.67
2022-11-16T12:30:58.903Z,90.77
2022-11-16T12:33:33.980Z,90.41
2022-11-16T12:36:02.004Z,91.19
2022-11-16T12:38:52.325Z,91.28
2022-11-16T12:41:36.445Z,91.11
2022-11-16T12:44:07.924Z,91.16
2022-11-16T12:46:38.432Z,91.91
2022-11-16T12:49:13.565Z,90.32
2022-11-16T12:51:46.491Z,91.89
2022-11-16T12:54:23.675Z,92.65
2022-11-16T12:56:53.237Z,92.83
2022-11-16T12:59:30.802Z,92.46
2022-11-16T13:02:01.290Z,92.19
2022-11-16T13:04:30.861Z,92.08
2022-11-16T13:07:03.333Z,92.61
2022-11-16T13:09:35.920Z,90.71
2022-11-16T13:12:05.035Z,91.21
2022-11-16T13:14:35.060Z,91.02
2022-11-16T13:17:01.865Z,90.68
2022-11-16T13:19:28.452Z,90.18
2022-11-16T13:21:57.825Z,90.85
2022-11-16T13:24:32.384Z,91.08
2022-11-16T13:27:12.212Z,90.87
2022-11-16T13:29:43.805Z,90.72
2022-11-16T13:32:13.583Z,90.90
2022-11-16T13:34:40.397Z,90.64
2022-11-16T13:37:21.641Z,91.00
2022-11-16T13:40:12.237Z,91.78
2022-11-16T13:42:43.445Z,91.07
2022-11-16T13:45:16.617Z,91.17
2022-11-16T13:47:48.702Z,91.23
2022-11-16T13:50:17.700Z,91.49
2022-11-16T13:55:33.438Z,90.41
2022-11-16T13:58:00.963Z,91.14
2022-11-16T14:00:30.675Z,91.55
2022-11-16T14:03:15.509Z,91.26
2022-11-16T14:05:43.230Z,91.32
2022-11-16T14:08:24.455Z,91.53
2022-11-16T14:11:00.621Z,92.02
2022-11-16T14:13:37.487Z,92.04
2022-11-16T14:16:24.709Z,91.87
2022-11-16T14:18:53.624Z,91.89
2022-11-16T14:21:30.935Z,91.39
2022-11-16T14:24:03.738Z,91.66
2022-11-16T14:26:40.715Z,91.81
2022-11-16T14:29:18.824Z,91.42
2022-11-16T14:31:47.365Z,91.44
2022-11-16T14:34:18.123Z,92.26
2022-11-16T14:36:46.472Z,92.72
2022-11-16T14:39:27.699Z,92.53
2022-11-16T14:41:54.997Z,92.79
2022-11-16T14:44:22.866Z,92.86
2022-11-16T14:46:49.397Z,93.15
2022-11-16T14:49:17.859Z,93.10
2022-11-16T14:51:45.870Z,93.22
2022-11-16T14:54:14.576Z,92.98
2022-11-16T14:56:54.890Z,93.16
2022-11-16T14:59:21.255Z,93.33
2022-11-16T15:01:47.620Z,93.72
2022-11-16T15:04:16.689Z,93.26
2022-11-16T15:06:48.177Z,92.99
2022-11-16T15:09:17.234Z,93.18
2022-11-16T15:11:47.164Z,93.22
2022-11-16T15:14:16.795Z,93.26
2022-11-16T15:16:48.202Z,92.99
2022-11-16T15:19:14.556Z,92.89
2022-11-16T15:21:49.462Z,93.04
2022-11-16T15:24:30.387Z,93.21
2022-11-16T15:27:00.040Z,92.96
2022-11-16T15:29:26.397Z,93.86
2022-11-16T15:31:52.888Z,93.81
2022-11-16T15:34:19.577Z,93.98
2022-11-16T15:36:46.386Z,93.61
2022-11-16T15:39:14.307Z,94.39
2022-11-16T15:41:42.752Z,94.46
2022-11-16T15:44:15.111Z,94.79
2022-11-16T15:46:44.591Z,95.34
2022-11-16T15:49:14.779Z,95.46
2022-11-16T15:51:43.172Z,95.60
2022-11-16T15:54:13.616Z,96.16
2022-11-16T15:56:40.594Z,96.28
2022-11-16T15:59:12.823Z,96.40
2022-11-16T16:01:41.566Z,96.47
2022-11-16T16:04:08.422Z,96.97
2022-11-16T16:06:45.295Z,96.99
2022-11-16T16:09:13.324Z,96.08
2022-11-16T16:11:39.802Z,96.87
2022-11-16T16:14:08.570Z,96.28
2022-11-16T16:16:36.690Z,96.96
2022-11-16T16:19:09.464Z,96.95
2022-11-16T16:21:42.103Z,97.05
2022-11-16T16:24:09.440Z,97.13
2022-11-16T16:26:35.789Z,97.20
2022-11-16T16:29:02.144Z,97.42
2022-11-16T16:31:28.526Z,97.51
2022-11-16T16:33:56.251Z,96.83
2022-11-16T16:36:22.605Z,96.67
2022-11-16T16:38:48.991Z,96.40
2022-11-16T16:41:21.254Z,97.05
2022-11-16T16:43:50.507Z,97.17
2022-11-16T16:46:16.880Z,96.94
2022-11-16T16:48:44.803Z,97.02
2022-11-16T16:51:13.119Z,97.37
2022-11-16T16:53:39.457Z,98.00
2022-11-16T16:56:10.680Z,97.58
2022-11-16T16:58:37.014Z,97.72
2022-11-16T17:01:03.898Z,98.11
2022-11-16T17:03:30.393Z,98.81
2022-11-16T17:05:59.313Z,99.23
2022-11-16T17:08:27.024Z,99.38
2022-11-16T17:10:53.414Z,99.50
2022-11-16T17:13:19.750Z,99.59
2022-11-16T17:15:46.098Z,99.51
2022-11-16T17:18:12.490Z,99.39
2022-11-16T17:20:44.111Z,98.88
2022-11-16T17:23:11.620Z,97.95
2022-11-16T17:25:39.352Z,97.12
2022-11-16T17:28:05.690Z,96.63
2022-11-16T17:30:32.046Z,97.15
2022-11-16T17:32:58.400Z,97.43
2022-11-16T17:35:24.778Z,97.80
2022-11-16T17:37:51.357Z,98.12
2022-11-16T17:40:17.810Z,97.71
2022-11-16T17:42:45.528Z,97.22
2022-11-16T17:45:11.940Z,97.67
2022-11-16T17:47:38.276Z,98.41
2022-11-16T17:50:05.010Z,98.79
2022-11-16T17:52:31.358Z,98.38
2022-11-16T17:54:57.705Z,98.37
2022-11-16T17:57:24.082Z,98.19
2022-11-16T17:59:51.810Z,98.30
2022-11-16T18:02:18.157Z,97.92
2022-11-16T18:04:49.611Z,97.79
2022-11-16T18:07:17.408Z,97.68
2022-11-16T18:09:43.789Z,97.27
2022-11-16T18:12:10.141Z,97.19
2022-11-16T18:14:36.482Z,97.22
2022-11-16T18:17:04.220Z,97.60
2022-11-16T18:19:30.554Z,98.25
2022-11-16T18:21:56.902Z,98.23
2022-11-16T18:24:23.228Z,98.76
2022-11-16T18:26:49.571Z,98.84
2022-11-16T18:29:16.018Z,98.95
2022-11-16T18:31:42.870Z,98.90
2022-11-16T18:34:12.865Z,98.70
2022-11-16T18:36:39.204Z,98.90
2022-11-16T18:39:05.615Z,98.86
2022-11-16T18:41:32.234Z,98.36
2022-11-16T18:43:59.813Z,98.30
2022-11-16T18:46:27.037Z,97.90
2022-11-16T18:48:53.587Z,97.75
2022-11-16T18:51:21.898Z,97.38
2022-11-16T18:53:48.627Z,97.96
2022-11-16T18:56:15.596Z,97.63
2022-11-16T18:58:50.845Z,97.57
2022-11-16T19:01:19.302Z,98.21
2022-11-16T19:03:45.957Z,98.34
2022-11-16T19:06:12.371Z,98.33
2022-11-16T19:08:40.586Z,98.16
2022-11-16T19:11:07.423Z,97.91
2022-11-16T19:13:34.209Z,97.95
2022-11-16T19:16:00.796Z,97.62
2022-11-16T19:18:27.536Z,97.53
2022-11-16T19:21:01.955Z,97.43
2022-11-16T19:23:28.318Z,97.37
2022-11-16T19:26:00.659Z,97.24
2022-11-16T19:28:27.046Z,97.10
2022-11-16T19:30:53.391Z,97.07
2022-11-16T19:33:19.748Z,97.75
2022-11-16T19:35:46.076Z,97.77
2022-11-16T19:38:12.411Z,98.08
2022-11-16T19:40:38.748Z,98.24
2022-11-16T19:43:06.506Z,98.26
2022-11-16T19:45:32.850Z,98.15
2022-11-16T19:47:59.199Z,98.14
2022-11-16T19:50:25.550Z,98.42
2022-11-16T19:52:51.909Z,98.12
2022-11-16T19:55:18.242Z,98.17
2022-11-16T19:57:44.715Z,98.35
2022-11-16T20:00:13.203Z,98.30
2022-11-16T20:02:39.544Z,98.21
2022-11-16T20:05:06.390Z,97.39
2022-11-16T20:07:32.816Z,97.37
2022-11-16T20:09:59.189Z,97.76
2022-11-16T20:12:25.532Z,98.15
2022-11-16T20:14:51.919Z,98.35
2022-11-16T20:17:19.707Z,98.34
2022-11-16T20:19:46.027Z,97.94
2022-11-16T20:22:12.397Z,97.89
2022-11-16T20:24:38.746Z,97.32
2022-11-16T20:27:05.142Z,97.47
2022-11-16T20:29:31.484Z,97.42
2022-11-16T20:31:57.831Z,96.82
2022-11-16T20:34:25.538Z,97.40
2022-11-16T20:36:51.930Z,97.74
2022-11-16T20:39:19.225Z,97.91
2022-11-16T20:41:45.952Z,97.74
2022-11-16T20:44:16.368Z,97.93
2022-11-16T20:46:43.222Z,98.12
2022-11-16T20:49:09.607Z,98.15
2022-11-16T20:51:37.325Z,97.97
2022-11-16T20:54:03.849Z,97.44
2022-11-16T20:56:30.249Z,96.87
2022-11-16T20:58:56.667Z,97.41
2022-11-16T21:01:23.853Z,97.64
2022-11-16T21:03:50.304Z,97.69
2022-11-16T21:06:16.624Z,97.97
2022-11-16T21:08:44.348Z,97.88
2022-11-16T21:11:11.343Z,98.37
2022-11-16T21:13:37.949Z,98.21
2022-11-16T21:16:05.461Z,97.78
2022-11-16T21:18:32.157Z,98.20
2022-11-16T21:20:58.564Z,98.52
2022-11-16T21:23:25.382Z,98.32
2022-11-16T21:25:53.110Z,97.74
2022-11-16T21:28:24.194Z,97.26
2022-11-16T21:30:55.353Z,97.42
2022-11-16T21:33:21.704Z,97.10
2022-11-16T21:35:48.034Z,96.98
2022-11-16T21:38:14.406Z,97.40
2022-11-16T21:40:40.742Z,97.45
2022-11-16T21:43:08.489Z,97.41
2022-11-16T21:45:34.832Z,97.82
2022-11-16T21:48:01.227Z,98.49
2022-11-16T21:50:32.222Z,98.89
2022-11-16T21:52:58.947Z,98.65
2022-11-16T21:55:25.365Z,98.67
2022-11-16T21:57:51.773Z,98.84
2022-11-16T22:00:19.794Z,99.10
2022-11-16T22:02:46.195Z,98.88
2022-11-16T22:05:12.547Z,98.16
2022-11-16T22:07:39.991Z,98.33
2022-11-16T22:10:07.538Z,98.46
2022-11-16T22:12:34.028Z,98.03
2022-11-16T22:15:00.732Z,98.29
2022-11-16T22:17:28.561Z,97.92
2022-11-16T22:19:55.086Z,97.40
2022-11-16T22:22:21.710Z,97.52
2022-11-16T22:24:48.251Z,97.98
2022-11-16T22:27:15.087Z,98.09
2022-11-16T22:29:41.569Z,98.31
2022-11-16T22:32:07.914Z,98.28
2022-11-16T22:34:35.689Z,98.12
2022-11-16T22:37:02.045Z,97.66
2022-11-16T22:39:28.412Z,97.14
2022-11-16T22:41:54.758Z,97.18
2022-11-16T22:44:21.113Z,97.56
2022-11-16T22:46:47.448Z,96.98
2022-11-16T22:49:13.788Z,97.13
2022-11-16T22:51:41.515Z,97.33
2022-11-16T22:54:10.089Z,96.50
2022-11-16T22:56:36.441Z,96.74
2022-11-16T22:59:02.858Z,97.03
2022-11-16T23:01:29.273Z,96.43
2022-11-16T23:03:55.629Z,96.26
2022-11-16T23:06:22.020Z,95.69
2022-11-16T23:08:49.805Z,95.71
2022-11-16T23:11:17.140Z,96.32
2022-11-16T23:13:43.715Z,96.87
2022-11-16T23:16:10.054Z,96.64
2022-11-16T23:18:36.410Z,96.79
2022-11-16T23:21:02.750Z,96.24
2022-11-16T23:23:29.092Z,96.40
2022-11-16T23:25:56.865Z,96.84
2022-11-16T23:28:23.293Z,96.91
2022-11-16T23:30:49.668Z,96.36
2022-11-16T23:33:16.005Z,96.82
2022-11-16T23:35:42.478Z,96.88
2022-11-16T23:38:08.845Z,96.90
2022-11-16T23:40:35.852Z,96.77
2022-11-16T23:43:04.147Z,96.82
2022-11-16T23:45:30.531Z,96.67
2022-11-16T23:47:56.870Z,95.82
2022-11-16T23:50:23.314Z,96.10
2022-11-16T23:52:49.662Z,95.63
2022-11-16T23:55:16.137Z,95.61
2022-11-16T23:57:42.449Z,95.64
